powered by Meteolive.it
Dati meteo   Attuali  Passati Ogni 3 ore 7 Giorni 15 Giorni Avvisi Meteo Mappe meteo
Milano / Linate, Italy
Alba: 7:53 AM UTC1
Tramonto: 4:39 PM UTC1
 Lat: 45.42N, Lon: 9.27E
ICAO Usato: LIML
Condizioni Meteo Attuali Aggiornate: 14.12.2017 alle 07:20 LT
Molto Nuvoloso
Molto Nuvoloso
Molto Nuvoloso
N/D
Temp: 3°C
Umidita': 93%
Direz/Vel. Vento: variabile 02 KTS raffiche
Pressione: 1009 hPa
Punto di rugiada: 2°C
Temperatura percepita: 3°C
Visibilitą: 8000 m. (buona)
Temperatura percepita in
presenza di vento (Wind Chill)
:
N/D
T. max (ultime 24 ore): 3°C
T. min (ultime 24 ore): 2°C


METAR ORIGINALE
LIML 140520Z VRB02KT 8000 BKN050 03/02 Q1009 NOSIG